Time;durP1;ratioP1;P1;durP2;ratioP2;P2;SDS_P1;SDS_P2;PMS_P1;PMS_P2;Temp;Humidity;BMP_temperature;BMP_pressure;BME280_temperature;BME280_humidity;BME280_pressure;Samples;Min_cycle;Max_cycle;Signal;HPM_P1;HPM_P2
2024/01/23 00:00:41;;;;;;;2.40;0.60;;;6.80;99.90;;;;;;5130851;27;20249;-74
2024/01/23 00:03:07;;;;;;;2.07;0.60;;;6.80;99.90;;;;;;5112212;27;20411;-73
2024/01/23 00:05:32;;;;;;;3.33;0.77;;;6.80;99.90;;;;;;5112082;27;20204;-73
2024/01/23 00:07:58;;;;;;;2.13;0.80;;;6.80;99.90;;;;;;5112168;27;20256;-73
2024/01/23 00:10:24;;;;;;;2.23;0.93;;;6.80;99.90;;;;;;5112261;27;20561;-75
2024/01/23 00:12:49;;;;;;;4.53;1.40;;;6.80;99.90;;;;;;5112299;27;20235;-73
2024/01/23 00:15:15;;;;;;;1.70;0.90;;;6.80;99.90;;;;;;5130822;27;20181;-73
2024/01/23 00:17:41;;;;;;;3.57;0.93;;;6.80;99.90;;;;;;5130931;27;20180;-73
2024/01/23 00:20:07;;;;;;;2.50;0.73;;;6.80;99.90;;;;;;5112208;27;20197;-74
2024/01/23 00:22:33;;;;;;;3.13;0.97;;;6.80;99.90;;;;;;5112178;27;20208;-74
2024/01/23 00:24:59;;;;;;;2.50;0.87;;;6.80;99.90;;;;;;5130497;27;20446;-74
2024/01/23 00:27:25;;;;;;;4.00;0.90;;;6.80;99.90;;;;;;5130679;27;20184;-74
2024/01/23 00:29:51;;;;;;;3.60;0.90;;;6.80;99.90;;;;;;5130377;27;20488;-74
2024/01/23 00:32:16;;;;;;;2.23;0.90;;;6.80;99.90;;;;;;5112176;27;20213;-74
2024/01/23 00:34:42;;;;;;;3.13;1.00;;;6.80;99.90;;;;;;5130132;27;20178;-75
2024/01/23 00:37:07;;;;;;;2.50;0.93;;;6.80;99.90;;;;;;5111650;27;20200;-75
2024/01/23 00:39:37;;;;;;;3.60;1.20;;;6.80;99.90;;;;;;5112208;27;20241;-75
2024/01/23 00:42:04;;;;;;;2.10;0.77;;;6.70;99.90;;;;;;5130788;27;20264;-75
2024/01/23 00:44:29;;;;;;;4.70;1.10;;;6.70;99.90;;;;;;5112130;27;20423;-74
2024/01/23 00:46:56;;;;;;;1.20;0.70;;;6.60;99.90;;;;;;5112166;27;20462;-74
2024/01/23 00:49:22;;;;;;;4.60;1.13;;;6.60;99.90;;;;;;5129977;27;20879;-74
2024/01/23 00:51:47;;;;;;;5.07;0.83;;;6.60;99.90;;;;;;5129753;27;20212;-75
2024/01/23 00:54:13;;;;;;;3.17;1.00;;;6.60;99.90;;;;;;5129758;27;20230;-74
2024/01/23 00:56:41;;;;;;;4.00;0.80;;;6.60;99.90;;;;;;5129702;27;20212;-74
2024/01/23 00:59:09;;;;;;;14.50;1.07;;;6.50;99.90;;;;;;5129638;27;20711;-75
2024/01/23 01:01:35;;;;;;;3.80;1.70;;;6.50;99.90;;;;;;5129745;27;20513;-74
2024/01/23 01:04:01;;;;;;;3.23;0.97;;;6.50;99.90;;;;;;5094028;28;20426;-75
2024/01/23 01:06:26;;;;;;;1.20;0.70;;;6.50;99.90;;;;;;5094484;27;21099;-75
2024/01/23 01:08:52;;;;;;;3.67;1.00;;;6.40;99.90;;;;;;5130098;27;20201;-76
2024/01/23 01:11:17;;;;;;;2.57;0.77;;;6.40;99.90;;;;;;5129856;27;20177;-74
2024/01/23 01:13:43;;;;;;;4.10;0.77;;;6.40;99.90;;;;;;5090933;28;20177;-74
2024/01/23 01:16:08;;;;;;;2.23;0.70;;;6.30;99.90;;;;;;5128080;27;20302;-74
2024/01/23 01:18:36;;;;;;;4.00;1.17;;;6.30;99.90;;;;;;5093807;28;20205;-75
2024/01/23 01:21:02;;;;;;;3.53;0.93;;;6.30;99.90;;;;;;5129356;28;20173;-74
2024/01/23 01:23:28;;;;;;;2.53;0.90;;;6.30;99.90;;;;;;5129666;28;20886;-74
2024/01/23 01:25:54;;;;;;;2.20;0.80;;;6.30;99.90;;;;;;5110698;28;20458;-74
2024/01/23 01:28:19;;;;;;;1.90;0.60;;;6.30;99.90;;;;;;5093759;28;20737;-74
2024/01/23 01:30:45;;;;;;;3.13;1.03;;;6.30;99.90;;;;;;5129240;28;20216;-74
2024/01/23 01:33:11;;;;;;;6.10;1.30;;;6.30;99.90;;;;;;5110493;28;20246;-75
2024/01/23 01:35:36;;;;;;;2.40;0.87;;;6.40;99.90;;;;;;5129198;27;20453;-75
2024/01/23 01:38:02;;;;;;;4.67;1.00;;;6.40;99.90;;;;;;5129218;28;20284;-75
2024/01/23 01:40:28;;;;;;;3.83;1.20;;;6.40;99.90;;;;;;5129068;28;20177;-75
2024/01/23 01:42:53;;;;;;;3.20;0.90;;;6.50;99.90;;;;;;5129098;28;20271;-74
2024/01/23 01:45:19;;;;;;;11.90;0.87;;;6.50;99.90;;;;;;5093323;28;20185;-75
2024/01/23 01:47:47;;;;;;;2.20;0.77;;;6.40;99.90;;;;;;5130740;27;20880;-74
2024/01/23 01:50:13;;;;;;;3.73;0.70;;;6.50;99.90;;;;;;5115037;27;20200;-74
2024/01/23 01:52:41;;;;;;;2.47;0.70;;;6.50;99.90;;;;;;5132979;27;20497;-74
2024/01/23 01:55:07;;;;;;;3.93;0.80;;;6.40;99.90;;;;;;5114252;27;20418;-74
2024/01/23 01:57:36;;;;;;;1.70;0.70;;;6.40;99.90;;;;;;5133179;27;20414;-75
2024/01/23 02:00:03;;;;;;;3.43;0.80;;;6.40;99.90;;;;;;5132930;27;20453;-75
2024/01/23 02:02:29;;;;;;;6.07;1.20;;;6.30;99.90;;;;;;5133028;27;20513;-75
2024/01/23 02:04:55;;;;;;;2.50;1.10;;;6.20;99.90;;;;;;5132865;27;20517;-75
2024/01/23 02:07:21;;;;;;;3.47;0.80;;;6.20;99.90;;;;;;5114342;27;20415;-74
2024/01/23 02:09:46;;;;;;;3.07;0.90;;;6.20;99.90;;;;;;5132772;27;20209;-74
2024/01/23 02:12:12;;;;;;;3.33;0.83;;;6.10;99.90;;;;;;5132865;27;20200;-74
2024/01/23 02:14:37;;;;;;;5.83;0.83;;;6.10;99.90;;;;;;5132711;27;20181;-75
2024/01/23 02:17:03;;;;;;;3.83;0.90;;;6.10;99.90;;;;;;5114032;27;20177;-74
2024/01/23 02:19:29;;;;;;;5.53;1.50;;;6.10;99.90;;;;;;5132464;27;20270;-74
2024/01/23 02:21:54;;;;;;;5.10;0.93;;;6.00;99.90;;;;;;5132792;27;20189;-73
2024/01/23 02:24:20;;;;;;;2.90;0.97;;;6.10;99.90;;;;;;5132671;27;20181;-73
2024/01/23 02:26:46;;;;;;;8.57;1.43;;;6.10;99.90;;;;;;5132673;27;20185;-74
2024/01/23 02:29:11;;;;;;;4.93;1.30;;;6.10;99.90;;;;;;5132507;27;20196;-74
2024/01/23 02:31:38;;;;;;;1.63;1.07;;;6.10;99.90;;;;;;5132368;27;20208;-74
2024/01/23 02:34:03;;;;;;;8.70;0.90;;;6.10;99.90;;;;;;5113950;27;20173;-74
2024/01/23 02:36:29;;;;;;;11.10;1.20;;;6.10;99.90;;;;;;5132256;27;20454;-74
2024/01/23 02:38:55;;;;;;;5.90;1.20;;;6.20;99.90;;;;;;5113661;27;20764;-74
2024/01/23 02:41:20;;;;;;;2.50;0.97;;;6.10;99.90;;;;;;5132364;27;20488;-75
2024/01/23 02:43:46;;;;;;;7.90;0.90;;;6.10;99.90;;;;;;5113745;27;20579;-74
2024/01/23 02:46:11;;;;;;;3.67;1.23;;;6.10;99.90;;;;;;5113623;27;20185;-74
2024/01/23 02:48:37;;;;;;;5.93;1.37;;;6.20;99.90;;;;;;5114031;27;20254;-74
2024/01/23 02:51:03;;;;;;;2.30;0.97;;;6.10;99.90;;;;;;5094814;27;20679;-74
2024/01/23 02:53:28;;;;;;;7.73;1.30;;;6.10;99.90;;;;;;5131920;27;20208;-74
2024/01/23 02:55:54;;;;;;;5.07;1.40;;;6.10;99.90;;;;;;5132182;27;20177;-74
2024/01/23 02:58:21;;;;;;;3.10;0.90;;;6.10;99.90;;;;;;5113214;27;20581;-74
2024/01/23 03:00:46;;;;;;;2.20;0.73;;;6.10;99.90;;;;;;5113487;27;20240;-73
2024/01/23 03:03:12;;;;;;;2.73;0.90;;;6.10;99.90;;;;;;5131906;27;20452;-75
2024/01/23 03:05:38;;;;;;;14.53;1.57;;;6.20;99.90;;;;;;5132345;27;20423;-74
2024/01/23 03:08:04;;;;;;;12.40;1.67;;;6.20;99.90;;;;;;5131975;27;20207;-74
2024/01/23 03:10:30;;;;;;;11.17;1.73;;;6.20;99.90;;;;;;5132049;27;20207;-74
2024/01/23 03:12:55;;;;;;;9.17;1.43;;;6.20;99.90;;;;;;5132232;27;20462;-75
2024/01/23 03:15:21;;;;;;;7.80;1.50;;;6.20;99.90;;;;;;5113920;27;20426;-75
2024/01/23 03:17:47;;;;;;;8.60;1.20;;;6.30;99.90;;;;;;5113742;27;20189;-74
2024/01/23 03:20:12;;;;;;;7.43;1.30;;;6.30;99.90;;;;;;5113823;27;20205;-74
2024/01/23 03:22:38;;;;;;;12.43;2.13;;;6.30;99.90;;;;;;5132163;27;20212;-74
2024/01/23 03:25:05;;;;;;;11.30;1.80;;;6.30;99.90;;;;;;5132034;27;20215;-74
2024/01/23 03:27:31;;;;;;;4.40;1.07;;;6.30;99.90;;;;;;5113214;27;20680;-74
2024/01/23 03:29:57;;;;;;;12.93;1.50;;;6.40;99.90;;;;;;5131743;27;20438;-74
2024/01/23 03:32:22;;;;;;;7.00;1.37;;;6.40;99.90;;;;;;5131570;27;20496;-74
2024/01/23 03:34:49;;;;;;;8.83;1.33;;;6.40;99.90;;;;;;5131461;27;20311;-74
2024/01/23 03:37:15;;;;;;;6.20;1.50;;;6.30;99.90;;;;;;5131193;27;20199;-75
2024/01/23 03:39:41;;;;;;;3.27;1.30;;;6.40;99.90;;;;;;5112715;27;20553;-75
2024/01/23 03:42:07;;;;;;;8.20;2.20;;;6.40;99.90;;;;;;5131199;27;20509;-74
2024/01/23 03:44:32;;;;;;;6.50;1.13;;;6.40;99.90;;;;;;5131148;27;20498;-74
2024/01/23 03:46:58;;;;;;;8.53;1.43;;;6.40;99.90;;;;;;5095452;27;20192;-74
2024/01/23 03:49:24;;;;;;;4.03;1.17;;;6.30;99.90;;;;;;5130985;27;20208;-73
2024/01/23 03:51:50;;;;;;;5.77;1.37;;;6.30;99.90;;;;;;5095498;27;20220;-73
2024/01/23 03:54:15;;;;;;;10.40;2.03;;;6.30;99.90;;;;;;5112406;27;20572;-73
2024/01/23 03:56:41;;;;;;;6.10;1.20;;;6.20;99.90;;;;;;5130879;27;20227;-73
2024/01/23 03:59:07;;;;;;;6.00;1.63;;;6.30;99.90;;;;;;5130817;27;20692;-73
2024/01/23 04:01:33;;;;;;;8.63;1.23;;;6.30;99.90;;;;;;5112189;27;20427;-74
2024/01/23 04:03:58;;;;;;;5.13;1.50;;;6.30;99.90;;;;;;5130611;27;20528;-74
2024/01/23 04:06:25;;;;;;;8.27;1.50;;;6.20;99.90;;;;;;5112250;27;20285;-74
2024/01/23 04:08:50;;;;;;;5.10;1.50;;;6.20;99.90;;;;;;5095121;27;20754;-73
2024/01/23 04:11:16;;;;;;;6.23;1.30;;;6.20;99.90;;;;;;5129527;27;20425;-73
2024/01/23 04:13:41;;;;;;;3.27;1.33;;;6.20;99.90;;;;;;5111983;27;20708;-74
2024/01/23 04:16:07;;;;;;;4.20;1.30;;;6.10;99.90;;;;;;5112236;27;20191;-73
2024/01/23 04:18:33;;;;;;;9.00;2.07;;;6.10;99.90;;;;;;5130253;27;20201;-74
2024/01/23 04:20:59;;;;;;;8.47;1.50;;;6.00;99.90;;;;;;5111840;27;20272;-74
2024/01/23 04:23:25;;;;;;;5.40;1.47;;;6.00;99.90;;;;;;5130398;27;20177;-74
2024/01/23 04:25:50;;;;;;;5.00;1.10;;;6.00;99.90;;;;;;5130346;27;20917;-73
2024/01/23 04:28:16;;;;;;;10.43;1.77;;;5.90;99.90;;;;;;5130227;27;20200;-72
2024/01/23 04:30:42;;;;;;;8.57;1.60;;;5.90;99.90;;;;;;5130437;27;20192;-73
2024/01/23 04:33:08;;;;;;;7.70;1.77;;;5.90;99.90;;;;;;5130583;27;20204;-73
2024/01/23 04:35:34;;;;;;;3.23;0.97;;;5.80;99.90;;;;;;5130329;27;20227;-73
2024/01/23 04:38:00;;;;;;;7.67;1.70;;;5.80;99.90;;;;;;5111837;27;20211;-74
2024/01/23 04:40:25;;;;;;;7.40;1.43;;;5.70;99.90;;;;;;5111992;27;20430;-73
2024/01/23 04:42:51;;;;;;;11.63;1.90;;;5.70;99.90;;;;;;5112000;27;20836;-73
2024/01/23 04:45:16;;;;;;;8.43;1.67;;;5.70;99.90;;;;;;5130076;27;20184;-73
2024/01/23 04:47:42;;;;;;;10.83;1.50;;;5.70;99.90;;;;;;5130087;27;20562;-73
2024/01/23 04:50:08;;;;;;;10.67;2.20;;;5.70;99.90;;;;;;5129859;27;20205;-73
2024/01/23 04:52:34;;;;;;;9.50;1.50;;;5.70;99.90;;;;;;5129839;27;21025;-73
2024/01/23 04:55:00;;;;;;;10.90;2.07;;;5.60;99.90;;;;;;5111376;27;20418;-73
2024/01/23 04:57:31;;;;;;;5.27;1.30;;;5.60;99.90;;;;;;5129243;27;20898;-73
2024/01/23 04:59:58;;;;;;;8.20;1.57;;;5.50;99.90;;;;;;5129202;27;20255;-73
2024/01/23 05:02:24;;;;;;;13.43;2.17;;;5.50;99.90;;;;;;5129236;27;20421;-73
2024/01/23 05:04:49;;;;;;;8.47;1.60;;;5.50;99.90;;;;;;5129782;27;20799;-73
2024/01/23 05:07:15;;;;;;;5.77;1.40;;;5.50;99.90;;;;;;5130225;27;20196;-73
2024/01/23 05:09:40;;;;;;;13.20;1.83;;;5.50;99.90;;;;;;5129671;27;20688;-73
2024/01/23 05:12:06;;;;;;;7.10;1.50;;;5.50;99.90;;;;;;5129261;27;20217;-73
2024/01/23 05:14:32;;;;;;;6.13;1.70;;;5.50;99.90;;;;;;5110739;27;20603;-73
2024/01/23 05:16:58;;;;;;;5.87;1.17;;;5.40;99.90;;;;;;5110605;27;20419;-73
2024/01/23 05:19:24;;;;;;;19.07;2.43;;;5.30;99.90;;;;;;5130038;27;20197;-73
2024/01/23 05:21:49;;;;;;;8.53;1.47;;;5.30;99.90;;;;;;5110168;28;20417;-73
2024/01/23 05:24:17;;;;;;;9.17;1.60;;;5.20;99.90;;;;;;5128782;27;20181;-74
2024/01/23 05:26:42;;;;;;;8.63;2.03;;;5.10;99.90;;;;;;5128793;27;20943;-73
2024/01/23 05:29:08;;;;;;;11.17;1.20;;;5.10;99.90;;;;;;5128687;28;20206;-73
2024/01/23 05:31:34;;;;;;;7.10;1.10;;;5.10;99.90;;;;;;5128440;27;20298;-73
2024/01/23 05:33:59;;;;;;;5.67;1.10;;;5.10;99.90;;;;;;5128516;27;20181;-73
2024/01/23 05:36:25;;;;;;;2.40;0.70;;;5.00;99.90;;;;;;5109817;28;20228;-73
2024/01/23 05:38:50;;;;;;;2.93;0.70;;;5.00;99.90;;;;;;5128550;28;20203;-73
2024/01/23 05:41:17;;;;;;;4.20;0.60;;;5.10;99.90;;;;;;5128401;28;20177;-73
2024/01/23 05:43:43;;;;;;;1.93;0.50;;;5.00;99.90;;;;;;5109583;28;20447;-73
2024/01/23 05:46:09;;;;;;;1.90;0.50;;;4.90;99.90;;;;;;5128372;28;20441;-74
2024/01/23 05:48:35;;;;;;;1.77;0.50;;;4.80;99.90;;;;;;5128357;28;20313;-73
2024/01/23 05:51:00;;;;;;;1.83;0.47;;;4.70;99.90;;;;;;5128286;28;20660;-73
2024/01/23 05:53:26;;;;;;;3.10;0.97;;;4.60;99.90;;;;;;5092506;28;20464;-73
2024/01/23 05:55:52;;;;;;;0.63;0.40;;;4.50;99.90;;;;;;5109605;28;20177;-73
2024/01/23 05:58:17;;;;;;;1.50;0.50;;;4.50;99.90;;;;;;5109418;28;20437;-73
2024/01/23 06:00:43;;;;;;;1.07;0.53;;;4.40;99.90;;;;;;5127750;28;20216;-72
2024/01/23 06:03:09;;;;;;;1.07;0.57;;;4.40;99.90;;;;;;5109812;28;20276;-73
2024/01/23 06:05:34;;;;;;;1.37;0.70;;;4.40;99.90;;;;;;5128069;28;20181;-72
2024/01/23 06:08:00;;;;;;;1.33;0.53;;;4.30;99.90;;;;;;5109471;28;20187;-73
2024/01/23 06:10:26;;;;;;;0.90;0.40;;;4.30;99.90;;;;;;5109313;28;20662;-73
2024/01/23 06:12:52;;;;;;;1.02;0.40;;;4.20;99.90;;;;;;5128144;28;20215;-73
2024/01/23 06:15:17;;;;;;;1.03;0.40;;;4.20;99.90;;;;;;5127912;28;20183;-73
2024/01/23 06:17:43;;;;;;;0.80;0.50;;;4.20;99.90;;;;;;5128003;28;20184;-73
2024/01/23 06:20:12;;;;;;;0.70;0.40;;;4.30;99.90;;;;;;5128039;28;20432;-73
2024/01/23 06:22:38;;;;;;;4.57;0.40;;;4.30;99.90;;;;;;5128290;28;20218;-74
2024/01/23 06:25:14;;;;;;;0.70;0.50;;;4.20;99.90;;;;;;5128089;28;20738;-73
2024/01/23 06:27:43;;;;;;;2.28;0.50;;;4.10;99.90;;;;;;5109952;28;20279;-73
2024/01/23 06:30:11;;;;;;;2.95;0.60;;;4.00;99.90;;;;;;5109692;28;20217;-72
2024/01/23 06:32:41;;;;;;;3.73;0.80;;;4.00;99.90;;;;;;5127766;27;20201;-73
2024/01/23 06:35:07;;;;;;;1.15;0.65;;;3.90;99.90;;;;;;5112516;27;20796;-73
2024/01/23 06:37:33;;;;;;;2.33;0.67;;;3.90;99.90;;;;;;5131641;27;20207;-72
2024/01/23 06:39:59;;;;;;;0.98;0.47;;;3.90;99.90;;;;;;5131333;27;20436;-72
2024/01/23 06:42:25;;;;;;;1.57;0.67;;;3.90;99.90;;;;;;5131506;27;20192;-73
2024/01/23 06:44:50;;;;;;;1.43;0.50;;;3.80;99.90;;;;;;5131263;27;20239;-72
2024/01/23 06:47:18;;;;;;;1.57;0.50;;;3.80;99.90;;;;;;5112706;27;20420;-72
2024/01/23 06:49:44;;;;;;;1.57;0.60;;;3.80;99.90;;;;;;5131144;27;20743;-73
2024/01/23 06:52:10;;;;;;;1.23;0.70;;;3.90;99.90;;;;;;5131314;27;20556;-73
2024/01/23 06:54:36;;;;;;;1.00;0.60;;;3.90;99.90;;;;;;5095472;27;20461;-73
2024/01/23 06:57:01;;;;;;;2.60;0.60;;;3.90;99.90;;;;;;5131051;27;20271;-72
2024/01/23 06:59:28;;;;;;;1.93;0.80;;;3.90;99.90;;;;;;5130945;27;20247;-73
2024/01/23 07:01:53;;;;;;;1.95;0.75;;;3.90;99.90;;;;;;5112719;27;20211;-73
2024/01/23 07:04:19;;;;;;;0.70;0.40;;;4.00;99.90;;;;;;5112252;27;20685;-72
2024/01/23 07:06:45;;;;;;;0.87;0.40;;;4.00;99.90;;;;;;5131184;27;20752;-74
2024/01/23 07:09:11;;;;;;;0.80;0.50;;;4.00;99.90;;;;;;5130744;27;20227;-73
2024/01/23 07:11:40;;;;;;;2.70;0.52;;;4.10;99.90;;;;;;5095172;27;20210;-73
2024/01/23 07:14:07;;;;;;;1.23;0.60;;;4.00;99.90;;;;;;5130872;27;20184;-74
2024/01/23 07:16:32;;;;;;;2.33;0.70;;;4.00;99.90;;;;;;5130805;27;20185;-74
2024/01/23 07:18:58;;;;;;;1.30;0.60;;;4.00;99.90;;;;;;5092247;27;20207;-74
2024/01/23 07:21:24;;;;;;;3.67;0.80;;;4.00;99.90;;;;;;5130892;27;20732;-74
2024/01/23 07:23:49;;;;;;;1.63;0.70;;;4.00;99.90;;;;;;5130797;27;20481;-74
2024/01/23 07:26:15;;;;;;;1.80;0.70;;;4.00;99.90;;;;;;5112124;27;20770;-74
2024/01/23 07:28:40;;;;;;;2.07;0.70;;;4.00;99.90;;;;;;5112131;27;20201;-74
2024/01/23 07:31:06;;;;;;;1.47;0.80;;;4.00;99.90;;;;;;5130603;27;20240;-74
2024/01/23 07:33:32;;;;;;;1.63;0.70;;;4.00;99.90;;;;;;5130252;27;20218;-74
2024/01/23 07:35:57;;;;;;;1.30;0.50;;;4.00;99.90;;;;;;5111758;27;20182;-74
2024/01/23 07:38:23;;;;;;;2.00;0.83;;;4.00;99.90;;;;;;5130178;27;20237;-74
2024/01/23 07:40:48;;;;;;;1.93;0.67;;;4.00;99.90;;;;;;5111969;27;20186;-74
2024/01/23 07:43:16;;;;;;;3.03;0.80;;;4.10;99.90;;;;;;5111525;27;20195;-74
2024/01/23 07:45:42;;;;;;;1.60;0.70;;;4.10;99.90;;;;;;5128971;27;20191;-74
2024/01/23 07:48:07;;;;;;;4.50;1.20;;;4.10;99.90;;;;;;5130135;27;20188;-74
2024/01/23 07:50:33;;;;;;;3.83;0.87;;;4.00;99.90;;;;;;5111482;27;20667;-74
2024/01/23 07:52:59;;;;;;;4.07;1.10;;;4.00;99.90;;;;;;5129995;27;20751;-74
2024/01/23 07:55:24;;;;;;;1.83;0.80;;;4.10;99.90;;;;;;5111884;27;20225;-75
2024/01/23 07:57:50;;;;;;;1.50;0.87;;;4.20;99.90;;;;;;5111715;27;20183;-75
2024/01/23 08:00:18;;;;;;;0.70;0.50;;;4.30;99.90;;;;;;5094324;27;20221;-74
2024/01/23 08:02:44;;;;;;;2.50;0.80;;;4.30;99.90;;;;;;5130215;27;20191;-74
2024/01/23 08:05:11;;;;;;;1.52;0.73;;;4.30;99.90;;;;;;5130069;27;20524;-74
2024/01/23 08:07:37;;;;;;;2.13;0.77;;;4.40;99.90;;;;;;5130211;27;20192;-74
2024/01/23 08:10:03;;;;;;;1.80;0.77;;;4.40;99.90;;;;;;5129771;27;20480;-74
2024/01/23 08:12:29;;;;;;;4.60;1.50;;;4.40;99.90;;;;;;5111404;27;20224;-74
2024/01/23 08:14:54;;;;;;;2.77;1.40;;;4.50;99.90;;;;;;5111022;27;21082;-74
2024/01/23 08:17:20;;;;;;;4.50;1.60;;;4.40;99.90;;;;;;5129636;27;20166;-74
2024/01/23 08:19:46;;;;;;;6.73;1.00;;;4.50;99.90;;;;;;5110973;27;20244;-74
2024/01/23 08:22:11;;;;;;;7.70;1.87;;;4.50;99.90;;;;;;5094141;27;20565;-73
2024/01/23 08:24:37;;;;;;;1.00;0.90;;;4.50;99.90;;;;;;5129711;27;20184;-73
2024/01/23 08:27:04;;;;;;;3.30;0.90;;;4.50;99.90;;;;;;5129983;27;20195;-73
2024/01/23 08:29:29;;;;;;;2.77;1.20;;;4.50;99.90;;;;;;5129548;27;20241;-73
2024/01/23 08:31:55;;;;;;;3.47;1.07;;;4.50;99.90;;;;;;5111235;27;20827;-74
2024/01/23 08:34:22;;;;;;;4.10;0.70;;;4.50;99.90;;;;;;5129589;27;20184;-74
2024/01/23 08:36:48;;;;;;;3.97;0.97;;;4.60;99.90;;;;;;5129572;27;20189;-73
2024/01/23 08:39:14;;;;;;;3.27;0.83;;;4.70;99.90;;;;;;5129426;27;20430;-73
2024/01/23 08:41:40;;;;;;;6.97;0.97;;;4.70;99.90;;;;;;5129344;27;20549;-73
2024/01/23 08:44:06;;;;;;;3.67;0.70;;;4.80;99.90;;;;;;5110292;27;20496;-73
2024/01/23 08:46:31;;;;;;;4.17;1.00;;;4.70;99.90;;;;;;5110680;27;20192;-73
2024/01/23 08:48:57;;;;;;;1.07;0.40;;;4.70;99.90;;;;;;5129035;27;20218;-73
2024/01/23 08:51:24;;;;;;;2.90;0.83;;;4.70;99.90;;;;;;5110680;27;20173;-73
2024/01/23 08:53:51;;;;;;;3.40;0.90;;;4.80;99.90;;;;;;5128914;27;20803;-74
2024/01/23 08:56:21;;;;;;;2.50;1.33;;;4.80;99.90;;;;;;5110128;27;20421;-73
2024/01/23 08:58:47;;;;;;;2.83;1.17;;;4.80;99.90;;;;;;5093250;27;20435;-74
2024/01/23 09:01:13;;;;;;;6.23;1.30;;;4.90;99.90;;;;;;5110049;27;20437;-73
2024/01/23 09:03:39;;;;;;;7.73;1.30;;;4.90;99.90;;;;;;5110441;27;20925;-73
2024/01/23 09:06:05;;;;;;;6.00;1.47;;;5.00;99.90;;;;;;5093808;27;20207;-73
2024/01/23 09:08:31;;;;;;;5.77;1.30;;;5.10;99.90;;;;;;5110189;27;20430;-73
2024/01/23 09:10:57;;;;;;;2.53;1.37;;;5.10;99.90;;;;;;5128534;27;20321;-73
2024/01/23 09:13:22;;;;;;;5.80;1.70;;;5.10;99.90;;;;;;5128364;27;20200;-74
2024/01/23 09:15:48;;;;;;;4.00;1.20;;;5.10;99.90;;;;;;5128399;27;20433;-73
2024/01/23 09:18:14;;;;;;;5.87;1.63;;;5.10;99.90;;;;;;5128225;27;20739;-73
2024/01/23 09:20:39;;;;;;;6.43;1.43;;;5.20;99.90;;;;;;5109889;28;20686;-74
2024/01/23 09:23:05;;;;;;;3.17;1.40;;;5.30;99.90;;;;;;5128417;28;20181;-74
2024/01/23 09:25:31;;;;;;;4.57;1.57;;;5.40;99.90;;;;;;5128682;28;20184;-74
2024/01/23 09:27:56;;;;;;;7.60;1.73;;;5.60;99.90;;;;;;5128085;28;20422;-74
2024/01/23 09:30:22;;;;;;;6.90;1.47;;;5.70;99.90;;;;;;5128143;28;20725;-73
2024/01/23 09:32:48;;;;;;;5.40;1.60;;;5.70;99.90;;;;;;5127844;28;20212;-74
2024/01/23 09:35:14;;;;;;;3.10;1.67;;;5.90;99.90;;;;;;5128098;28;20415;-73
2024/01/23 09:44:24;;;;;;;4.83;0.97;;;7.30;99.90;;;;;;5127692;28;20387;-74
2024/01/23 09:56:57;;;;;;;3.13;1.30;;;7.60;99.90;;;;;;5127796;28;20772;-74
2024/01/23 09:59:23;;;;;;;9.80;1.90;;;7.30;99.90;;;;;;5088705;28;20440;-74
2024/01/23 10:01:49;;;;;;;8.90;2.27;;;7.20;99.90;;;;;;5123343;28;20419;-74
2024/01/23 10:04:17;;;;;;;9.80;2.10;;;7.10;99.90;;;;;;5109251;28;20214;-74
2024/01/23 10:06:43;;;;;;;12.83;2.00;;;7.10;99.90;;;;;;5127615;28;20215;-74
2024/01/23 10:09:08;;;;;;;9.60;1.33;;;7.00;99.90;;;;;;5111240;27;20853;-73
2024/01/23 10:11:35;;;;;;;6.50;2.63;;;7.20;99.90;;;;;;5131390;27;20513;-74
2024/01/23 10:14:05;;;;;;;7.43;1.80;;;7.30;99.90;;;;;;5131355;27;20407;-74
2024/01/23 10:16:31;;;;;;;7.30;2.20;;;8.10;99.90;;;;;;5131863;27;20443;-76
2024/01/23 10:18:57;;;;;;;8.47;2.00;;;8.70;99.90;;;;;;5131456;27;21032;-77
2024/01/23 10:21:23;;;;;;;12.20;2.63;;;9.10;99.90;;;;;;5131245;27;20177;-76
2024/01/23 10:23:53;;;;;;;4.70;1.37;;;9.70;99.90;;;;;;5131447;27;20410;-75
2024/01/23 10:26:19;;;;;;;5.43;1.50;;;9.80;99.90;;;;;;5131673;27;20910;-76
2024/01/23 10:28:46;;;;;;;5.10;1.67;;;10.00;99.90;;;;;;5131127;27;20873;-75
2024/01/23 10:31:12;;;;;;;8.47;1.70;;;10.00;99.90;;;;;;5131640;27;20448;-77
2024/01/23 10:33:38;;;;;;;9.90;2.10;;;9.80;99.90;;;;;;5112474;27;20491;-76
2024/01/23 10:36:08;;;;;;;6.40;1.73;;;9.30;99.90;;;;;;5130854;27;20910;-76
2024/01/23 10:38:35;;;;;;;7.83;1.97;;;9.10;99.90;;;;;;5131079;27;20438;-76
2024/01/23 10:41:03;;;;;;;8.77;1.73;;;9.20;99.90;;;;;;5131006;27;20422;-77
2024/01/23 10:43:29;;;;;;;5.23;1.27;;;9.30;99.90;;;;;;5112279;27;20476;-77
2024/01/23 10:45:58;;;;;;;5.60;1.73;;;9.40;99.90;;;;;;5130891;27;20418;-76
2024/01/23 10:48:26;;;;;;;9.53;2.10;;;9.50;99.90;;;;;;5112691;27;20447;-76
2024/01/23 10:50:54;;;;;;;7.70;2.07;;;9.80;99.90;;;;;;5130836;27;20417;-75
2024/01/23 10:53:24;;;;;;;7.30;1.80;;;10.40;99.90;;;;;;5112129;27;20458;-76
2024/01/23 10:55:53;;;;;;;7.67;1.30;;;10.60;99.90;;;;;;5112677;27;20415;-76
2024/01/23 10:58:28;;;;;;;12.63;2.43;;;10.50;99.90;;;;;;5112309;27;20529;-76
2024/01/23 11:00:58;;;;;;;9.53;1.47;;;10.20;99.90;;;;;;5112037;27;20417;-76
2024/01/23 11:03:25;;;;;;;11.40;2.03;;;10.00;99.90;;;;;;5112567;27;20420;-76
2024/01/23 11:06:07;;;;;;;11.67;2.00;;;9.60;99.90;;;;;;5111621;27;20426;-76
2024/01/23 11:08:50;;;;;;;10.73;2.13;;;9.40;99.90;;;;;;5130248;27;20488;-76
2024/01/23 11:11:35;;;;;;;7.60;1.80;;;9.50;99.90;;;;;;5111802;27;20801;-76
2024/01/23 11:14:19;;;;;;;10.10;1.93;;;9.60;99.90;;;;;;5130200;27;20441;-76
2024/01/23 11:17:06;;;;;;;13.50;2.00;;;9.90;99.90;;;;;;5130077;27;20418;-76
2024/01/23 11:19:39;;;;;;;7.00;1.90;;;9.50;99.90;;;;;;5130209;27;20521;-76
2024/01/23 11:22:05;;;;;;;8.00;2.20;;;9.60;99.90;;;;;;5130347;27;20406;-76
2024/01/23 11:24:47;;;;;;;8.37;2.03;;;9.80;99.90;;;;;;5094516;27;20931;-76
2024/01/23 11:27:23;;;;;;;6.57;1.17;;;10.70;99.90;;;;;;5129906;27;20181;-76
2024/01/23 11:29:50;;;;;;;12.37;2.10;;;11.00;99.90;;;;;;5129793;27;20426;-76
2024/01/23 11:32:23;;;;;;;8.10;1.90;;;11.80;99.90;;;;;;5094973;27;21232;-76
2024/01/23 11:34:58;;;;;;;6.83;1.40;;;12.30;99.90;;;;;;5112111;27;20415;-77
2024/01/23 11:37:48;;;;;;;7.93;1.53;;;12.70;99.90;;;;;;5130240;27;20921;-76
2024/01/23 11:40:35;;;;;;;10.93;1.80;;;12.20;99.90;;;;;;5111702;27;20473;-77
2024/01/23 11:43:04;;;;;;;7.30;1.80;;;12.40;99.90;;;;;;5111047;27;20522;-76
2024/01/23 11:45:32;;;;;;;7.60;1.70;;;12.20;99.90;;;;;;5129965;27;20438;-76
2024/01/23 11:48:03;;;;;;;7.57;1.77;;;12.10;99.90;;;;;;5110690;27;20436;-76
2024/01/23 11:50:32;;;;;;;7.13;1.60;;;12.50;99.90;;;;;;5130193;27;20415;-76
2024/01/23 11:52:59;;;;;;;5.13;1.63;;;13.30;99.90;;;;;;5132277;27;20981;-77
2024/01/23 11:55:26;;;;;;;7.03;1.33;;;13.20;99.90;;;;;;5130169;27;20448;-78
2024/01/23 11:57:57;;;;;;;11.70;2.03;;;13.40;99.90;;;;;;5129835;27;20429;-76
2024/01/23 12:00:23;;;;;;;9.30;2.03;;;13.40;99.90;;;;;;5129532;27;20421;-76
2024/01/23 12:02:49;;;;;;;11.20;1.80;;;13.60;99.90;;;;;;5129413;27;20430;-76
2024/01/23 12:05:18;;;;;;;7.70;1.93;;;13.40;99.90;;;;;;5111337;27;20427;-76
2024/01/23 12:07:45;;;;;;;4.37;2.00;;;12.90;99.90;;;;;;5129549;27;20426;-76
2024/01/23 12:10:17;;;;;;;11.43;2.03;;;13.00;99.90;;;;;;5130678;27;20432;-76
2024/01/23 12:12:43;;;;;;;12.13;2.40;;;12.90;99.90;;;;;;5129564;27;20468;-76
2024/01/23 12:15:09;;;;;;;6.13;1.87;;;12.30;99.90;;;;;;5110956;27;20420;-77
2024/01/23 12:17:43;;;;;;;5.40;1.63;;;12.40;99.90;;;;;;5093936;27;20516;-77
2024/01/23 12:20:09;;;;;;;7.90;2.00;;;12.60;99.90;;;;;;5129764;27;20433;-76
2024/01/23 12:22:36;;;;;;;12.00;2.03;;;12.30;99.90;;;;;;5129341;27;20425;-77
2024/01/23 12:25:03;;;;;;;7.10;1.80;;;12.20;99.90;;;;;;5110571;27;20440;-76
2024/01/23 12:27:30;;;;;;;5.70;1.80;;;11.60;99.90;;;;;;5129234;27;20435;-76
2024/01/23 12:29:57;;;;;;;10.20;1.37;;;11.60;99.90;;;;;;5128885;27;20598;-77
2024/01/23 12:32:27;;;;;;;4.80;1.87;;;11.70;99.90;;;;;;5128452;27;20538;-77
2024/01/23 12:34:53;;;;;;;8.27;1.90;;;11.60;99.90;;;;;;5128905;27;20439;-76
2024/01/23 12:37:18;;;;;;;4.70;1.50;;;11.60;99.90;;;;;;5128770;27;20440;-76
2024/01/23 12:39:45;;;;;;;6.40;1.47;;;11.40;99.90;;;;;;5128750;27;20200;-76
2024/01/23 12:42:10;;;;;;;6.20;1.60;;;11.20;99.90;;;;;;5128565;27;20184;-76
2024/01/23 12:44:36;;;;;;;8.73;1.73;;;11.20;99.90;;;;;;5128887;27;20440;-76
2024/01/23 12:47:07;;;;;;;8.23;2.20;;;11.30;99.90;;;;;;5128530;27;20178;-77
2024/01/23 12:49:36;;;;;;;6.63;2.07;;;11.20;99.90;;;;;;5093306;27;20975;-76
2024/01/23 12:52:03;;;;;;;6.87;1.70;;;11.10;99.90;;;;;;5128569;27;20466;-75
2024/01/23 12:54:28;;;;;;;10.77;1.63;;;11.30;99.90;;;;;;5128977;27;20416;-76
2024/01/23 12:56:54;;;;;;;6.83;1.37;;;10.80;99.90;;;;;;5110496;27;20830;-75
2024/01/23 12:59:20;;;;;;;7.90;1.47;;;11.00;99.90;;;;;;5109806;27;20208;-77
2024/01/23 13:01:45;;;;;;;19.80;2.00;;;11.20;99.90;;;;;;5110196;27;20268;-76
2024/01/23 13:04:11;;;;;;;12.90;1.97;;;11.30;99.90;;;;;;5109848;27;20950;-77
2024/01/23 13:06:37;;;;;;;15.90;2.90;;;11.20;99.90;;;;;;5110061;27;20210;-75
2024/01/23 13:09:03;;;;;;;4.70;1.10;;;10.90;99.90;;;;;;5128617;27;20323;-75